Time;durP1;ratioP1;P1;durP2;ratioP2;P2;SDS_P1;SDS_P2;PMS_P1;PMS_P2;Temp;Humidity;BMP_temperature;BMP_pressure;BME280_temperature;BME280_humidity;BME280_pressure;Samples;Min_cycle;Max_cycle;Signal;HPM_P1;HPM_P2
2023/08/15 00:00:22;;;;;;;9.70;3.70;;;;;;;18.84;56.81;101734.13;107583;1254;98359;-61
2023/08/15 00:03:11;;;;;;;7.50;3.40;;;;;;;18.80;57.18;101736.78;107599;1251;113162;-61
2023/08/15 00:05:39;;;;;;;8.60;3.50;;;;;;;18.78;57.21;101741.38;107574;1251;109268;-60
2023/08/15 00:08:07;;;;;;;15.30;4.20;;;;;;;18.81;57.33;101743.23;107567;1254;108798;-61
2023/08/15 00:10:35;;;;;;;10.40;4.00;;;;;;;18.85;57.46;101740.61;107577;1254;97931;-63
2023/08/15 00:13:04;;;;;;;14.00;4.30;;;;;;;18.84;57.63;101741.63;107619;1251;98315;-60
2023/08/15 00:15:32;;;;;;;9.30;3.40;;;;;;;18.84;57.81;101737.88;107655;1255;111115;-61
2023/08/15 00:18:01;;;;;;;12.70;3.70;;;;;;;18.81;57.91;101739.03;107620;1251;109538;-61
2023/08/15 00:20:29;;;;;;;16.80;3.90;;;;;;;18.81;57.66;101737.28;107581;1251;109470;-60
2023/08/15 00:22:57;;;;;;;8.60;3.60;;;;;;;18.80;57.94;101739.53;107569;1251;97921;-61
2023/08/15 00:25:26;;;;;;;9.90;3.40;;;;;;;18.79;58.06;101741.40;107579;1254;98411;-63
2023/08/15 00:27:54;;;;;;;10.90;4.10;;;;;;;18.79;58.22;101741.44;107627;1251;111288;-60
2023/08/15 00:30:22;;;;;;;9.60;3.80;;;;;;;18.79;58.11;101737.45;107606;1250;109958;-60
2023/08/15 00:32:51;;;;;;;11.20;3.50;;;;;;;18.78;58.27;101740.29;107628;1251;106814;-60
2023/08/15 00:35:19;;;;;;;14.00;3.90;;;;;;;18.76;58.50;101743.55;107653;1251;98007;-61
2023/08/15 00:37:47;;;;;;;9.10;3.70;;;;;;;18.74;58.46;101742.83;107602;1256;98366;-60
2023/08/15 00:40:16;;;;;;;14.30;3.80;;;;;;;18.72;58.51;101741.05;107584;1253;112157;-63
2023/08/15 00:42:44;;;;;;;9.10;4.30;;;;;;;18.67;58.57;101744.02;107602;1256;110163;-60
2023/08/15 00:45:13;;;;;;;12.60;3.80;;;;;;;18.62;58.63;101739.09;107590;1251;107723;-61
2023/08/15 00:47:42;;;;;;;12.00;3.60;;;;;;;18.56;58.78;101734.09;107575;1252;97864;-60
2023/08/15 00:50:12;;;;;;;10.30;4.80;;;;;;;18.47;59.19;101737.02;107614;1254;97844;-61
2023/08/15 00:52:41;;;;;;;15.50;4.00;;;;;;;18.40;59.24;101735.54;107578;1253;111831;-61
2023/08/15 00:55:09;;;;;;;5.80;3.50;;;;;;;18.39;59.20;101736.07;107610;1254;109260;-62
2023/08/15 00:57:38;;;;;;;11.00;4.00;;;;;;;18.39;59.42;101739.01;107617;1251;107134;-61
2023/08/15 01:00:07;;;;;;;15.20;4.00;;;;;;;18.36;59.68;101739.83;107559;1254;98059;-61
2023/08/15 01:02:36;;;;;;;8.50;4.10;;;;;;;18.35;59.66;101741.65;107666;1251;97749;-61
2023/08/15 01:05:07;;;;;;;10.20;4.20;;;;;;;18.33;59.71;101742.77;107626;1251;111865;-60
2023/08/15 01:07:36;;;;;;;7.60;3.70;;;;;;;18.31;59.81;101738.54;107638;1251;110074;-60
2023/08/15 01:10:05;;;;;;;17.50;5.00;;;;;;;18.29;59.99;101738.77;107569;1251;108190;-61
2023/08/15 01:12:52;;;;;;;10.10;4.30;;;;;;;18.24;60.42;101737.35;107538;1254;97841;-61
2023/08/15 01:15:28;;;;;;;12.10;4.30;;;;;;;18.13;61.51;101735.94;107582;1252;98369;-60
2023/08/15 01:18:12;;;;;;;13.10;4.10;;;;;;;18.05;61.19;101746.59;107605;1251;111445;-61
2023/08/15 01:20:41;;;;;;;12.20;4.60;;;;;;;18.02;61.48;101745.40;107653;1251;109102;-61
2023/08/15 01:23:12;;;;;;;11.30;4.00;;;;;;;18.01;62.23;101734.88;107597;1251;108191;-61
2023/08/15 01:25:42;;;;;;;9.20;3.70;;;;;;;17.96;63.07;101737.84;107648;1251;97694;-60
2023/08/15 01:28:15;;;;;;;12.10;4.40;;;;;;;17.91;62.54;101738.88;107639;1254;97701;-61
2023/08/15 01:30:49;;;;;;;12.10;3.90;;;;;;;17.90;62.79;101737.55;107583;1254;111947;-61
2023/08/15 01:33:26;;;;;;;7.60;3.80;;;;;;;17.84;62.80;101734.00;107585;1251;109903;-61
2023/08/15 01:36:07;;;;;;;7.90;3.70;;;;;;;17.76;62.94;101728.48;107624;1251;106888;-61
2023/08/15 01:38:43;;;;;;;8.50;4.00;;;;;;;17.71;63.40;101725.17;107598;1251;97844;-61
2023/08/15 01:41:15;;;;;;;12.50;4.40;;;;;;;17.67;63.17;101723.79;107627;1251;97713;-61
2023/08/15 01:43:45;;;;;;;15.20;4.60;;;;;;;17.64;63.07;101726.63;107623;1251;111213;-61
2023/08/15 01:46:14;;;;;;;8.30;4.50;;;;;;;17.63;63.22;101734.23;107620;1251;109160;-60
2023/08/15 01:48:43;;;;;;;13.40;4.20;;;;;;;17.61;62.90;101732.53;107603;1254;108033;-61
2023/08/15 01:51:12;;;;;;;8.90;4.10;;;;;;;17.62;63.21;101734.88;107586;1254;97812;-62
2023/08/15 01:53:41;;;;;;;12.00;4.80;;;;;;;17.57;64.60;101733.52;107637;1251;97690;-60
2023/08/15 01:56:09;;;;;;;8.80;4.40;;;;;;;17.53;64.53;101733.25;107582;1254;112186;-63
2023/08/15 01:58:38;;;;;;;11.20;4.80;;;;;;;17.50;64.42;101735.65;107656;1251;109412;-61
2023/08/15 02:01:06;;;;;;;15.00;4.80;;;;;;;17.52;64.42;101734.07;107629;1251;108686;-60
2023/08/15 02:03:35;;;;;;;9.30;4.60;;;;;;;17.53;64.24;101737.34;107636;1254;97899;-62
2023/08/15 02:06:04;;;;;;;12.20;6.00;;;;;;;17.52;64.08;101730.20;107596;1254;98372;-60
2023/08/15 02:08:32;;;;;;;33.90;5.00;;;;;;;17.52;63.88;101733.70;107584;1253;111339;-61
2023/08/15 02:11:02;;;;;;;16.20;4.80;;;;;;;17.51;64.16;101732.30;107560;1254;109083;-60
2023/08/15 02:13:33;;;;;;;25.10;4.10;;;;;;;17.49;64.28;101734.38;107572;1254;108374;-62
2023/08/15 02:16:02;;;;;;;13.80;5.00;;;;;;;17.45;64.23;101735.27;107526;1254;97784;-61
2023/08/15 02:18:31;;;;;;;8.80;4.30;;;;;;;17.44;64.11;101731.60;107569;1251;97774;-61
2023/08/15 02:20:59;;;;;;;16.80;4.90;;;;;;;17.43;64.21;101728.48;107582;1251;111940;-61
2023/08/15 02:23:28;;;;;;;11.50;4.60;;;;;;;17.45;64.34;101727.92;107636;1254;109702;-60
2023/08/15 02:25:56;;;;;;;15.60;5.00;;;;;;;17.43;64.25;101727.85;107534;1254;107273;-61
2023/08/15 02:28:25;;;;;;;12.80;5.10;;;;;;;17.41;64.42;101727.55;107638;1251;97879;-60
2023/08/15 02:30:53;;;;;;;17.20;5.40;;;;;;;17.40;64.38;101733.70;107659;1251;98084;-60
2023/08/15 02:33:22;;;;;;;12.20;5.40;;;;;;;17.37;64.36;101740.85;107594;1255;110807;-61
2023/08/15 02:35:52;;;;;;;10.90;5.10;;;;;;;17.33;64.28;101737.05;107609;1251;109142;-59
2023/08/15 02:38:20;;;;;;;16.30;4.70;;;;;;;17.31;64.43;101746.34;107594;1251;108253;-62
2023/08/15 02:40:49;;;;;;;10.40;4.50;;;;;;;17.32;64.58;101745.49;107584;1253;97822;-60
2023/08/15 02:43:18;;;;;;;12.00;5.10;;;;;;;17.33;64.56;101742.14;107648;1251;98359;-60
2023/08/15 02:45:46;;;;;;;29.00;6.20;;;;;;;17.31;64.43;101741.21;107597;1251;110408;-61
2023/08/15 02:48:14;;;;;;;9.20;4.70;;;;;;;17.31;64.53;101743.92;107578;1253;109356;-60
2023/08/15 02:50:43;;;;;;;14.00;5.00;;;;;;;17.30;64.41;101746.44;107615;1255;108336;-60
2023/08/15 02:53:11;;;;;;;12.20;4.50;;;;;;;17.29;64.62;101747.45;107593;1256;97904;-61
2023/08/15 02:55:40;;;;;;;14.90;5.20;;;;;;;17.26;64.99;101751.40;107610;1251;97967;-59
2023/08/15 02:58:08;;;;;;;13.50;4.90;;;;;;;17.18;65.25;101748.51;107569;1251;111927;-60
2023/08/15 03:00:37;;;;;;;13.70;5.40;;;;;;;17.13;64.98;101747.64;107566;1251;109142;-60
2023/08/15 03:03:05;;;;;;;15.60;5.70;;;;;;;17.10;65.22;101746.84;107573;1251;108537;-61
2023/08/15 03:05:37;;;;;;;18.20;5.20;;;;;;;17.11;65.40;101746.36;107550;1251;97688;-61
2023/08/15 03:08:05;;;;;;;15.60;5.20;;;;;;;17.13;65.31;101748.52;107639;1251;97731;-59
2023/08/15 03:10:36;;;;;;;14.30;5.00;;;;;;;17.15;65.28;101754.66;107583;1256;111134;-61
2023/08/15 03:13:04;;;;;;;27.00;7.40;;;;;;;17.16;65.16;101754.38;107548;1253;109014;-61
2023/08/15 03:15:37;;;;;;;18.70;5.40;;;;;;;17.16;65.16;101749.48;107626;1254;107807;-62
2023/08/15 03:18:06;;;;;;;16.90;5.90;;;;;;;17.15;65.20;101749.25;107536;1254;97880;-61
2023/08/15 03:20:35;;;;;;;15.20;5.40;;;;;;;17.11;65.10;101754.66;107599;1253;98382;-60
2023/08/15 03:23:03;;;;;;;14.70;5.00;;;;;;;17.10;65.13;101758.08;107648;1255;111935;-61
2023/08/15 03:25:32;;;;;;;16.20;5.40;;;;;;;17.09;65.22;101759.66;107552;1251;110128;-61
2023/08/15 03:28:01;;;;;;;20.60;5.90;;;;;;;17.07;65.37;101764.94;107549;1254;108155;-61
2023/08/15 03:30:29;;;;;;;12.90;5.30;;;;;;;17.07;65.22;101763.69;107550;1251;97817;-60
2023/08/15 03:32:58;;;;;;;16.00;5.00;;;;;;;17.07;65.28;101763.13;107578;1254;97721;-61
2023/08/15 03:35:27;;;;;;;16.10;5.70;;;;;;;17.06;65.39;101764.27;107601;1251;112003;-61
2023/08/15 03:37:56;;;;;;;18.50;6.30;;;;;;;17.04;65.91;101763.77;107622;1251;109507;-60
2023/08/15 03:40:24;;;;;;;15.80;5.80;;;;;;;17.01;65.91;101770.16;107601;1251;108891;-61
2023/08/15 03:42:52;;;;;;;24.00;5.90;;;;;;;17.00;65.88;101773.00;107574;1251;97836;-61
2023/08/15 03:45:20;;;;;;;11.80;6.10;;;;;;;16.99;66.00;101771.15;107628;1251;98245;-60
2023/08/15 03:47:48;;;;;;;21.00;5.80;;;;;;;16.97;65.96;101774.71;107629;1251;111099;-60
2023/08/15 03:50:17;;;;;;;17.20;5.60;;;;;;;16.99;65.95;101770.91;107615;1251;109210;-62
2023/08/15 03:52:45;;;;;;;23.80;6.90;;;;;;;17.00;66.08;101767.42;107537;1252;108401;-60
2023/08/15 03:55:14;;;;;;;19.00;6.40;;;;;;;16.99;66.19;101766.23;107619;1254;97829;-61
2023/08/15 03:57:42;;;;;;;15.30;5.80;;;;;;;16.98;66.15;101768.54;107575;1254;99521;-61
2023/08/15 04:00:11;;;;;;;18.50;6.90;;;;;;;16.99;66.32;101771.65;107546;1254;110630;-62
2023/08/15 04:02:46;;;;;;;14.60;6.30;;;;;;;16.99;66.27;101773.10;107630;1254;109856;-60
2023/08/15 04:05:15;;;;;;;22.00;6.20;;;;;;;17.00;66.62;101773.20;107561;1254;108456;-60
2023/08/15 04:07:43;;;;;;;23.00;6.80;;;;;;;17.02;66.62;101768.61;107371;1253;97873;-60
2023/08/15 04:10:13;;;;;;;22.80;7.60;;;;;;;17.06;66.58;101770.45;107663;1251;98004;-61
2023/08/15 04:12:44;;;;;;;16.70;6.90;;;;;;;17.09;66.98;101765.78;107619;1251;112336;-60
2023/08/15 04:15:12;;;;;;;15.20;6.60;;;;;;;17.08;66.97;101772.64;107614;1251;108240;-60
2023/08/15 04:17:40;;;;;;;26.20;6.70;;;;;;;17.09;66.94;101773.06;107592;1251;108378;-60
2023/08/15 04:20:12;;;;;;;21.60;6.90;;;;;;;17.13;66.87;101773.91;107607;1252;97870;-61
2023/08/15 04:22:41;;;;;;;29.20;7.30;;;;;;;17.17;66.89;101779.77;107588;1254;98608;-61
2023/08/15 04:25:09;;;;;;;15.40;6.90;;;;;;;17.22;66.80;101778.41;107598;1254;111053;-61
2023/08/15 04:27:38;;;;;;;17.20;6.60;;;;;;;17.26;67.01;101782.27;107596;1251;108988;-60
2023/08/15 04:30:08;;;;;;;16.10;7.30;;;;;;;17.30;66.92;101778.73;107555;1254;107599;-60
2023/08/15 04:32:37;;;;;;;23.50;6.90;;;;;;;17.36;67.02;101781.00;107568;1252;97843;-60
2023/08/15 04:35:06;;;;;;;20.70;6.90;;;;;;;17.41;66.86;101784.88;107598;1254;97844;-60
2023/08/15 04:37:37;;;;;;;31.60;6.60;;;;;;;17.46;66.99;101786.39;107582;1251;112234;-60
2023/08/15 04:40:09;;;;;;;15.40;6.90;;;;;;;17.52;66.84;101786.61;107533;1254;109803;-60
2023/08/15 04:42:41;;;;;;;16.30;6.30;;;;;;;17.59;66.74;101788.42;107566;1254;108346;-61
2023/08/15 04:45:10;;;;;;;17.70;7.50;;;;;;;17.66;66.78;101788.86;107596;1253;97813;-60
2023/08/15 04:47:38;;;;;;;21.30;7.10;;;;;;;17.74;66.53;101792.72;107614;1254;97813;-61
2023/08/15 04:50:08;;;;;;;15.30;5.70;;;;;;;17.82;66.44;101792.81;107571;1251;111692;-61
2023/08/15 04:52:36;;;;;;;32.80;17.60;;;;;;;17.90;66.35;101791.61;107584;1254;110385;-61
2023/08/15 04:55:06;;;;;;;20.80;7.80;;;;;;;18.00;66.20;101796.11;107606;1255;108532;-61
2023/08/15 04:57:34;;;;;;;14.10;6.30;;;;;;;18.10;66.01;101795.77;107627;1251;97852;-61
2023/08/15 05:00:08;;;;;;;21.80;6.50;;;;;;;18.21;65.77;101802.83;107624;1254;97992;-62
2023/08/15 05:02:37;;;;;;;19.10;7.60;;;;;;;18.32;65.35;101794.92;107643;1254;112176;-62
2023/08/15 05:05:09;;;;;;;19.70;6.70;;;;;;;18.41;65.00;101798.34;107660;1254;108734;-61
2023/08/15 05:07:38;;;;;;;26.10;8.10;;;;;;;18.48;64.63;101795.27;107572;1254;109259;-62
2023/08/15 05:10:08;;;;;;;25.70;7.50;;;;;;;18.54;64.41;101792.25;107556;1252;97813;-62
2023/08/15 05:12:38;;;;;;;17.70;6.30;;;;;;;18.59;64.00;101789.34;107574;1254;97749;-62
2023/08/15 05:15:09;;;;;;;27.60;6.70;;;;;;;18.62;63.78;101788.85;107602;1251;110700;-61
2023/08/15 05:17:38;;;;;;;21.60;6.10;;;;;;;18.65;63.71;101789.24;107609;1251;108884;-60
2023/08/15 05:20:08;;;;;;;18.60;6.60;;;;;;;18.69;63.56;101788.44;107617;1251;107659;-61
2023/08/15 05:22:37;;;;;;;18.20;6.80;;;;;;;18.75;63.41;101786.92;107557;1251;97867;-62
2023/08/15 05:25:06;;;;;;;22.70;6.30;;;;;;;18.80;63.20;101788.38;107580;1251;97783;-62
2023/08/15 05:27:38;;;;;;;;;;;;;;;18.85;63.15;101791.48;107585;1251;111931;-61
2023/08/15 05:30:08;;;;;;;24.00;6.30;;;;;;;18.90;63.08;101794.73;107531;1254;109426;-61
2023/08/15 06:50:33;;;;;;;14.90;5.80;;;;;;;21.64;51.74;101837.74;104573;1286;648496;-66
2023/08/15 06:53:01;;;;;;;19.30;4.40;;;;;;;22.09;49.44;101842.16;106226;1270;152850;-66
2023/08/15 06:55:29;;;;;;;11.80;4.20;;;;;;;22.29;47.14;101840.69;106433;1274;95790;-65
2023/08/15 06:57:58;;;;;;;16.70;4.50;;;;;;;22.43;48.14;101843.17;106469;1270;108010;-66
2023/08/15 07:00:26;;;;;;;16.90;3.80;;;;;;;22.54;47.52;101843.86;106429;1274;109930;-66
2023/08/15 07:02:54;;;;;;;14.90;4.70;;;;;;;22.67;46.08;101843.80;106422;1274;107777;-66
2023/08/15 07:05:22;;;;;;;18.20;4.60;;;;;;;22.81;46.74;101840.95;106461;1270;95858;-66
2023/08/15 07:07:50;;;;;;;9.60;4.00;;;;;;;22.94;46.29;101844.23;106572;1270;95791;-66
2023/08/15 07:10:18;;;;;;;12.40;4.20;;;;;;;23.10;45.83;101844.67;106509;1272;107085;-63
2023/08/15 07:12:46;;;;;;;19.90;4.10;;;;;;;23.23;44.85;101838.98;106515;1269;108919;-66
2023/08/15 07:15:15;;;;;;;14.00;4.10;;;;;;;23.35;45.08;101831.51;106521;1269;108149;-66
2023/08/15 07:17:43;;;;;;;13.00;3.50;;;;;;;23.48;44.30;101836.10;106478;1270;95789;-67
2023/08/15 07:20:14;;;;;;;8.70;3.60;;;;;;;23.63;44.59;101835.99;106506;1270;95690;-66
2023/08/15 07:22:43;;;;;;;13.80;4.20;;;;;;;23.75;44.51;101830.52;106468;1270;108191;-67
2023/08/15 07:25:12;;;;;;;12.70;3.60;;;;;;;23.89;44.53;101824.59;106652;1264;109892;-67
2023/08/15 07:27:40;;;;;;;15.10;4.30;;;;;;;24.03;44.71;101830.17;106665;1263;108286;-67
2023/08/15 07:30:12;;;;;;;14.00;4.10;;;;;;;24.15;44.80;101819.39;106758;1262;95876;-67
2023/08/15 07:32:40;;;;;;;12.80;7.70;;;;;;;24.26;44.12;101823.98;106690;1264;96226;-67
2023/08/15 07:35:09;;;;;;;15.20;4.00;;;;;;;24.40;44.11;101821.14;106725;1264;109055;-67
2023/08/15 07:37:38;;;;;;;12.50;4.40;;;;;;;24.53;44.58;101819.82;106714;1265;109803;-68
2023/08/15 07:40:09;;;;;;;13.30;3.50;;;;;;;24.63;44.56;101816.78;106675;1263;108362;-67
2023/08/15 07:42:38;;;;;;;21.10;3.90;;;;;;;24.74;43.91;101814.65;106661;1264;95801;-67
2023/08/15 07:45:07;;;;;;;10.10;3.70;;;;;;;24.85;44.13;101813.49;106725;1264;96322;-66
2023/08/15 07:47:38;;;;;;;12.90;3.50;;;;;;;24.98;43.81;101814.06;106979;1259;109642;-66
2023/08/15 07:50:17;;;;;;;9.20;3.50;;;;;;;25.10;43.27;101815.23;106850;1260;109847;-67
2023/08/15 07:52:45;;;;;;;13.80;3.50;;;;;;;25.23;43.63;101809.58;106812;1262;107718;-66
2023/08/15 07:55:14;;;;;;;10.40;3.30;;;;;;;25.35;43.53;101809.10;106812;1260;95803;-66
2023/08/15 07:57:45;;;;;;;8.90;3.40;;;;;;;25.48;43.59;101809.69;106832;1260;95796;-66
2023/08/15 08:00:14;;;;;;;16.40;3.70;;;;;;;25.63;43.63;101810.41;106892;1260;107696;-66
2023/08/15 08:02:44;;;;;;;8.40;4.20;;;;;;;25.77;43.69;101806.93;106864;1260;115751;-66
2023/08/15 08:05:12;;;;;;;11.90;3.30;;;;;;;25.92;43.51;101797.34;106827;1260;107684;-66
2023/08/15 08:07:42;;;;;;;8.20;3.40;;;;;;;26.07;43.67;101799.29;106834;1260;95793;-66
2023/08/15 08:10:11;;;;;;;8.70;3.50;;;;;;;26.22;43.45;101802.06;106858;1261;96455;-65
2023/08/15 08:12:39;;;;;;;17.80;3.50;;;;;;;26.39;42.95;101796.85;106893;1259;109276;-66
2023/08/15 08:15:08;;;;;;;16.40;3.80;;;;;;;26.55;41.91;101795.63;106846;1264;109291;-66
2023/08/15 08:17:36;;;;;;;7.70;2.60;;;;;;;26.73;41.65;101787.55;106850;1260;107004;-66
2023/08/15 08:20:12;;;;;;;8.00;2.90;;;;;;;26.90;40.73;101787.98;106869;1262;95805;-66
2023/08/15 08:22:41;;;;;;;11.50;2.70;;;;;;;27.05;39.88;101787.65;106875;1260;95781;-66
2023/08/15 08:25:21;;;;;;;8.90;2.60;;;;;;;27.18;38.56;101787.22;106830;1260;108443;-66
2023/08/15 08:27:50;;;;;;;12.90;3.40;;;;;;;27.37;38.45;101791.11;106827;1261;108946;-66
2023/08/15 08:30:20;;;;;;;12.00;3.70;;;;;;;27.56;37.07;101785.98;106810;1260;108633;-67
2023/08/15 08:32:50;;;;;;;10.20;3.10;;;;;;;27.72;37.75;101785.07;106827;1261;95794;-67
2023/08/15 08:35:19;;;;;;;10.80;3.50;;;;;;;27.89;37.73;101779.00;106811;1261;95802;-65
2023/08/15 08:37:47;;;;;;;9.80;2.80;;;;;;;28.08;37.43;101775.17;106926;1260;108081;-66
2023/08/15 08:40:17;;;;;;;7.40;2.90;;;;;;;28.23;36.10;101771.94;106937;1260;109767;-66
2023/08/15 08:42:45;;;;;;;11.90;2.80;;;;;;;28.43;35.97;101774.52;107120;1260;106714;-67
2023/08/15 08:45:14;;;;;;;12.40;2.50;;;;;;;28.63;35.43;101772.60;107039;1260;95858;-66
2023/08/15 08:47:45;;;;;;;9.30;3.00;;;;;;;28.82;35.32;101775.44;107096;1258;95780;-67
2023/08/15 08:50:15;;;;;;;7.00;2.80;;;;;;;29.03;35.12;101769.02;107039;1260;108627;-67
2023/08/15 08:52:53;;;;;;;9.10;2.80;;;;;;;29.23;34.45;101764.93;107050;1260;111503;-66
2023/08/15 08:55:25;;;;;;;21.60;2.60;;;;;;;29.44;33.24;101762.59;106776;1260;107769;-66
2023/08/15 08:57:54;;;;;;;6.80;2.60;;;;;;;29.61;33.67;101761.69;106784;1260;95806;-67
2023/08/15 09:00:31;;;;;;;8.00;2.50;;;;;;;29.80;33.36;101758.30;106779;1260;95752;-66
2023/08/15 09:03:00;;;;;;;9.10;2.70;;;;;;;30.01;33.01;101761.84;106881;1260;109595;-67
2023/08/15 09:05:28;;;;;;;12.10;2.50;;;;;;;30.23;32.47;101755.44;106848;1260;108851;-67
2023/08/15 09:07:57;;;;;;;4.60;2.40;;;;;;;30.47;32.77;101749.23;107018;1258;107602;-67
2023/08/15 09:10:26;;;;;;;8.50;2.50;;;;;;;30.71;32.50;101740.34;106930;1258;95812;-68
2023/08/15 09:12:59;;;;;;;8.40;3.00;;;;;;;30.97;31.79;101738.65;106997;1257;95814;-67
2023/08/15 09:15:28;;;;;;;10.60;2.70;;;;;;;31.15;31.97;101739.46;106978;1259;109111;-68
2023/08/15 09:18:02;;;;;;;7.10;2.70;;;;;;;31.37;31.86;101734.34;107047;1260;109412;-67
2023/08/15 09:20:44;;;;;;;6.00;2.30;;;;;;;31.57;31.01;101735.32;106971;1259;106569;-67
2023/08/15 09:23:14;;;;;;;5.00;2.40;;;;;;;31.82;30.99;101730.82;107110;1257;95784;-67
2023/08/15 09:25:43;;;;;;;14.50;5.30;;;;;;;32.16;30.76;101727.38;107022;1257;95695;-67
2023/08/15 09:28:11;;;;;;;9.60;2.80;;;;;;;32.51;30.39;101727.48;107122;1258;109200;-67
2023/08/15 09:30:49;;;;;;;12.80;2.60;;;;;;;32.83;29.22;101723.42;106984;1260;109472;-67
2023/08/15 09:33:18;;;;;;;9.00;1.90;;;;;;;33.14;28.84;101715.91;106847;1260;109030;-67
2023/08/15 09:35:46;;;;;;;8.10;2.80;;;;;;;33.62;28.09;101715.66;106926;1260;98249;-67
2023/08/15 09:38:27;;;;;;;7.50;2.30;;;;;;;34.18;27.16;101714.35;106934;1258;96615;-67
2023/08/15 09:40:56;;;;;;;9.10;2.30;;;;;;;34.66;26.47;101716.95;107071;1257;109235;-67
2023/08/15 09:43:25;;;;;;;8.30;2.70;;;;;;;35.22;26.10;101715.74;107029;1260;108794;-67
2023/08/15 09:45:55;;;;;;;6.40;1.90;;;;;;;35.78;25.26;101711.08;106999;1257;107210;-68
2023/08/15 09:48:25;;;;;;;7.70;2.60;;;;;;;36.16;25.22;101703.88;107038;1257;95814;-67
2023/08/15 09:50:55;;;;;;;13.70;2.90;;;;;;;36.67;25.10;101706.98;107118;1257;95868;-68
2023/08/15 09:53:24;;;;;;;7.70;2.70;;;;;;;37.28;24.49;101701.89;106991;1261;108855;-67
2023/08/15 09:55:53;;;;;;;4.60;2.40;;;;;;;37.82;23.94;101696.40;106985;1258;109315;-66
2023/08/15 09:58:22;;;;;;;9.80;2.20;;;;;;;38.32;23.67;101691.05;106919;1262;108207;-66
2023/08/15 10:00:51;;;;;;;4.20;2.00;;;;;;;38.85;22.84;101688.80;107008;1257;95904;-66
2023/08/15 10:03:26;;;;;;;5.10;2.10;;;;;;;39.25;22.30;101682.02;107024;1257;95799;-65
2023/08/15 10:05:57;;;;;;;15.70;2.80;;;;;;;39.47;21.66;101674.09;107120;1257;109488;-66
2023/08/15 10:08:25;;;;;;;6.10;2.60;;;;;;;39.41;20.98;101672.85;106992;1258;109860;-66
2023/08/15 10:10:54;;;;;;;15.90;2.60;;;;;;;39.37;21.36;101674.23;106956;1257;108722;-66
2023/08/15 10:13:26;;;;;;;6.00;1.90;;;;;;;39.22;20.99;101675.39;107081;1257;96549;-66
2023/08/15 10:15:55;;;;;;;6.80;2.30;;;;;;;39.15;21.84;101675.40;107049;1258;95767;-67
2023/08/15 10:18:25;;;;;;;4.10;1.90;;;;;;;39.64;21.47;101676.12;106988;1258;109864;-66
2023/08/15 10:20:56;;;;;;;7.80;1.90;;;;;;;40.14;20.85;101671.15;107007;1257;108848;-66
2023/08/15 10:23:36;;;;;;;6.50;1.90;;;;;;;40.52;20.31;101668.64;106928;1257;108568;-67
2023/08/15 10:26:05;;;;;;;7.30;2.20;;;;;;;40.98;20.14;101662.83;107086;1257;95762;-66
2023/08/15 10:28:34;;;;;;;5.60;2.00;;;;;;;41.39;19.14;101663.47;107124;1257;95686;-67
2023/08/15 10:31:02;;;;;;;4.80;2.10;;;;;;;41.57;19.05;101663.89;107014;1257;108950;-67
2023/08/15 10:33:33;;;;;;;5.60;2.20;;;;;;;41.63;19.23;101664.92;106981;1259;110330;-67
2023/08/15 10:36:02;;;;;;;9.80;2.10;;;;;;;41.64;19.05;101666.11;107008;1258;108308;-67
2023/08/15 10:38:35;;;;;;;2.90;1.80;;;;;;;41.93;18.85;101661.14;106916;1258;95864;-66
2023/08/15 10:41:11;;;;;;;5.80;2.20;;;;;;;41.92;18.72;101659.20;107206;1257;95800;-66
2023/08/15 10:43:48;;;;;;;8.10;2.00;;;;;;;41.74;19.14;101650.05;107063;1257;108202;-66
2023/08/15 10:46:18;;;;;;;9.00;2.40;;;;;;;41.42;19.09;101642.23;107015;1258;110186;-67
2023/08/15 10:48:48;;;;;;;6.80;1.90;;;;;;;41.15;18.77;101632.33;107058;1258;108567;-66
2023/08/15 10:51:20;;;;;;;;;;;;;;;41.44;18.55;101633.70;106989;1257;95808;-65
2023/08/15 10:53:51;;;;;;;9.30;2.20;;;;;;;41.34;18.62;101635.27;106989;1257;96399;-66
2023/08/15 10:56:22;;;;;;;5.20;1.90;;;;;;;41.56;18.81;101630.59;106993;1258;107278;-66
2023/08/15 10:58:51;;;;;;;4.30;2.10;;;;;;;41.80;18.90;101625.57;106983;1258;109977;-66
2023/08/15 11:01:28;;;;;;;6.40;2.00;;;;;;;42.13;18.30;101627.19;106966;1258;108701;-66
2023/08/15 11:03:58;;;;;;;6.50;1.70;;;;;;;42.70;18.35;101617.05;106965;1257;96449;-67
2023/08/15 11:06:28;;;;;;;3.80;1.60;;;;;;;43.32;18.27;101616.17;106960;1258;96435;-66
2023/08/15 11:08:58;;;;;;;6.60;1.80;;;;;;;43.66;17.21;101608.88;107011;1258;110650;-67
2023/08/15 11:11:26;;;;;;;8.20;1.80;;;;;;;43.48;16.97;101613.26;107040;1261;110131;-66
2023/08/15 11:13:55;;;;;;;7.30;1.90;;;;;;;43.31;17.29;101618.03;107011;1259;108471;-67
2023/08/15 11:16:24;;;;;;;5.10;2.10;;;;;;;42.69;17.29;101619.88;106902;1258;96469;-66
2023/08/15 11:18:57;;;;;;;11.90;1.90;;;;;;;42.15;17.83;101617.52;106988;1259;96479;-67
2023/08/15 11:21:28;;;;;;;6.10;2.30;;;;;;;41.64;18.24;101619.38;106934;1261;109489;-67
2023/08/15 11:23:58;;;;;;;7.50;2.00;;;;;;;41.11;18.35;101619.54;107147;1257;109427;-67
2023/08/15 11:26:27;;;;;;;7.10;3.00;;;;;;;40.61;19.39;101621.94;106994;1258;108577;-66
2023/08/15 11:28:55;;;;;;;8.10;2.50;;;;;;;40.19;19.40;101622.96;106960;1258;96480;-66
2023/08/15 11:31:23;;;;;;;10.40;2.30;;;;;;;39.75;19.92;101628.92;107056;1257;96455;-67
2023/08/15 11:33:51;;;;;;;6.60;1.80;;;;;;;39.39;19.60;101626.73;107050;1261;110024;-67
2023/08/15 11:36:21;;;;;;;7.10;2.40;;;;;;;38.96;19.70;101633.42;106967;1258;110450;-67
2023/08/15 11:38:49;;;;;;;6.00;2.30;;;;;;;38.58;20.02;101627.64;106992;1259;108100;-67
2023/08/15 11:41:18;;;;;;;10.00;2.00;;;;;;;38.25;20.34;101625.28;107076;1261;96500;-65
2023/08/15 11:43:48;;;;;;;8.70;2.60;;;;;;;38.00;20.17;101621.48;107046;1257;96335;-67
2023/08/15 11:46:16;;;;;;;7.50;2.10;;;;;;;38.31;20.11;101621.04;107034;1260;111016;-67
2023/08/15 11:48:45;;;;;;;4.50;1.90;;;;;;;39.36;19.73;101615.73;106956;1257;110335;-68
2023/08/15 11:51:23;;;;;;;6.10;2.10;;;;;;;40.46;19.00;101611.14;107034;1257;107865;-67
2023/08/15 11:53:53;;;;;;;5.80;2.10;;;;;;;41.42;18.39;101609.92;106995;1258;96450;-68
2023/08/15 11:56:21;;;;;;;7.80;2.30;;;;;;;42.10;17.49;101613.13;107007;1258;96309;-67
2023/08/15 11:58:49;;;;;;;7.00;2.10;;;;;;;42.68;17.20;101610.58;106996;1258;110502;-67
2023/08/15 12:01:17;;;;;;;2.90;1.50;;;;;;;43.14;16.77;101609.89;107015;1257;109598;-64
2023/08/15 12:03:45;;;;;;;4.70;1.80;;;;;;;43.42;16.45;101607.59;106940;1259;108382;-66
2023/08/15 12:06:15;;;;;;;6.00;1.90;;;;;;;43.98;16.01;101605.28;106914;1263;96532;-66
2023/08/15 12:08:44;;;;;;;5.20;1.30;;;;;;;44.33;15.54;101600.40;107079;1257;96476;-66
2023/08/15 12:11:19;;;;;;;5.40;1.90;;;;;;;44.68;15.29;101592.32;107126;1257;109097;-66
2023/08/15 12:13:48;;;;;;;6.60;1.60;;;;;;;44.88;15.22;101588.39;107019;1257;110565;-66
2023/08/15 12:16:19;;;;;;;10.80;1.40;;;;;;;45.12;14.78;101581.13;106908;1257;108207;-67
2023/08/15 12:18:48;;;;;;;3.30;1.30;;;;;;;45.44;14.70;101571.39;106984;1258;96471;-66
2023/08/15 12:21:16;;;;;;;7.70;2.00;;;;;;;45.87;14.33;101574.55;107071;1256;96568;-67
2023/08/15 12:23:45;;;;;;;7.80;1.50;;;;;;;46.24;13.61;101569.38;107104;1257;110642;-66
2023/08/15 12:26:13;;;;;;;6.10;1.60;;;;;;;46.48;13.75;101567.70;107030;1257;110140;-65
2023/08/15 12:28:42;;;;;;;5.90;1.50;;;;;;;46.81;13.23;101560.80;107059;1257;109284;-68
2023/08/15 12:31:10;;;;;;;3.30;1.70;;;;;;;46.96;13.13;101555.81;107086;1257;96468;-68
2023/08/15 12:33:39;;;;;;;3.50;1.50;;;;;;;47.08;12.81;101545.45;107094;1257;96563;-66
2023/08/15 12:36:15;;;;;;;4.00;1.60;;;;;;;47.20;12.69;101543.13;107075;1257;110087;-66
2023/08/15 12:38:43;;;;;;;6.90;1.80;;;;;;;47.30;12.96;101542.89;107062;1257;109843;-68